Time;durP1;ratioP1;P1;durP2;ratioP2;P2;SDS_P1;SDS_P2;PMS_P1;PMS_P2;Temp;Humidity;BMP_temperature;BMP_pressure;BME280_temperature;BME280_humidity;BME280_pressure;Samples;Min_cycle;Max_cycle;Signal;HPM_P1;HPM_P2
2022/07/07 00:01:14;;;;;;;3.15;0.77;;;;;;;15.35;68.59;101225.66;5107559;28;20242;-72
2022/07/07 00:04:17;;;;;;;4.03;1.38;;;;;;;15.28;68.42;101216.41;5107657;28;20535;-71
2022/07/07 00:07:21;;;;;;;3.88;1.35;;;;;;;15.30;68.22;101218.03;5106712;28;20038;-72
2022/07/07 00:10:24;;;;;;;5.10;1.52;;;;;;;15.34;68.78;101209.00;5107496;28;20097;-72
2022/07/07 00:13:27;;;;;;;3.03;1.00;;;;;;;15.28;68.53;101211.16;5107726;28;20062;-71
2022/07/07 00:16:31;;;;;;;4.53;0.85;;;;;;;15.30;68.71;101206.66;5108578;28;20184;-74
2022/07/07 00:19:34;;;;;;;5.30;1.25;;;;;;;15.28;69.24;101200.63;5106892;28;20319;-74
2022/07/07 00:22:37;;;;;;;4.35;1.00;;;;;;;15.41;68.95;101192.81;5108055;28;20043;-72
2022/07/07 00:25:41;;;;;;;4.65;0.90;;;;;;;15.30;69.37;101185.56;5107707;28;20039;-71
2022/07/07 00:28:44;;;;;;;3.88;1.02;;;;;;;15.21;70.13;101189.59;5108197;28;20417;-71
2022/07/07 00:31:47;;;;;;;3.83;0.88;;;;;;;15.17;70.22;101188.09;5108018;28;20504;-72
2022/07/07 00:34:51;;;;;;;5.03;1.10;;;;;;;15.16;70.29;101169.78;5107108;28;20404;-71
2022/07/07 00:37:54;;;;;;;3.33;0.90;;;;;;;15.22;70.11;101172.00;5107178;28;20047;-71
2022/07/07 00:40:58;;;;;;;3.78;0.85;;;;;;;15.30;69.33;101167.97;5106584;28;20043;-71
2022/07/07 00:44:01;;;;;;;4.00;0.70;;;;;;;15.32;69.00;101173.16;5106953;28;20108;-71
2022/07/07 00:47:05;;;;;;;2.60;0.70;;;;;;;15.33;69.42;101161.66;5107800;28;20413;-71
2022/07/07 00:50:10;;;;;;;5.53;1.10;;;;;;;15.31;69.41;101160.91;5107230;28;20408;-72
2022/07/07 00:53:15;;;;;;;2.17;0.70;;;;;;;15.29;70.00;101160.19;5108122;28;20436;-72
2022/07/07 00:56:19;;;;;;;4.07;1.15;;;;;;;15.27;70.24;101156.78;5107528;28;20086;-72
2022/07/07 00:59:22;;;;;;;4.85;1.08;;;;;;;15.24;70.45;101154.34;5111173;28;20409;-72
2022/07/07 01:02:30;;;;;;;4.00;1.55;;;;;;;15.26;70.40;101150.66;5110473;28;20646;-72
2022/07/07 01:05:35;;;;;;;3.60;1.00;;;;;;;15.26;70.91;101148.03;5110755;28;20092;-72
2022/07/07 01:08:38;;;;;;;3.33;0.93;;;;;;;15.19;70.97;101140.59;5111052;28;20412;-72
2022/07/07 01:11:44;;;;;;;4.00;1.10;;;;;;;15.34;70.34;101142.28;5111289;28;20109;-72
2022/07/07 01:14:48;;;;;;;3.25;1.17;;;;;;;15.28;70.83;101137.38;5111328;28;20070;-72
2022/07/07 01:17:51;;;;;;;5.80;1.10;;;;;;;15.28;71.40;101130.34;5110860;28;20111;-71
2022/07/07 01:20:55;;;;;;;2.20;0.80;;;;;;;15.23;70.86;101128.94;5110657;28;20046;-72
2022/07/07 01:23:59;;;;;;;5.68;0.93;;;;;;;15.27;71.13;101136.53;5110066;28;20047;-72
2022/07/07 01:27:08;;;;;;;4.43;1.33;;;;;;;15.40;70.45;101130.50;5110209;28;20043;-73
2022/07/07 01:30:12;;;;;;;6.63;1.63;;;;;;;15.19;70.75;101123.00;5110017;28;20046;-72
2022/07/07 01:33:16;;;;;;;3.78;1.10;;;;;;;15.15;71.31;101120.66;5109572;28;20512;-72
2022/07/07 01:36:19;;;;;;;3.50;1.15;;;;;;;15.09;71.72;101116.59;5110749;28;20046;-72
2022/07/07 01:39:22;;;;;;;2.47;1.00;;;;;;;15.15;71.71;101110.13;5110781;28;20050;-72
2022/07/07 01:42:26;;;;;;;3.05;1.05;;;;;;;15.08;71.55;101104.38;5099499;28;20398;-72
2022/07/07 01:45:29;;;;;;;3.47;0.95;;;;;;;15.14;71.43;101101.38;5090257;28;20038;-72
2022/07/07 01:48:32;;;;;;;5.78;1.50;;;;;;;15.07;70.90;101098.28;5110012;28;20092;-73
2022/07/07 01:51:36;;;;;;;3.15;1.17;;;;;;;15.04;71.08;101093.19;5110849;28;20507;-72
2022/07/07 01:54:40;;;;;;;4.43;0.85;;;;;;;15.03;71.08;101096.78;5110425;28;20100;-72
2022/07/07 01:57:43;;;;;;;6.40;1.08;;;;;;;15.01;70.79;101096.00;5110678;28;20061;-72
2022/07/07 02:00:47;;;;;;;2.92;0.93;;;;;;;14.96;71.06;101090.19;5109191;28;20092;-72
2022/07/07 02:03:50;;;;;;;4.85;1.40;;;;;;;14.98;70.61;101087.47;5109315;28;20107;-72
2022/07/07 02:06:54;;;;;;;3.53;0.90;;;;;;;15.03;70.91;101091.50;5110115;28;20090;-72
2022/07/07 02:10:00;;;;;;;5.30;1.10;;;;;;;15.01;70.38;101095.19;5102739;28;20066;-71
2022/07/07 02:13:04;;;;;;;3.40;1.00;;;;;;;14.95;70.51;101099.03;5089054;28;20098;-72
2022/07/07 02:16:08;;;;;;;4.45;0.90;;;;;;;14.92;70.57;101108.91;5107380;28;20070;-71
2022/07/07 02:19:11;;;;;;;2.63;0.95;;;;;;;14.89;70.87;101100.25;5110112;28;20086;-71
2022/07/07 02:22:15;;;;;;;6.60;1.00;;;;;;;14.89;71.15;101110.78;5109131;28;20305;-71
2022/07/07 02:25:18;;;;;;;3.85;1.25;;;;;;;14.84;71.48;101112.84;5109093;28;20046;-72
2022/07/07 02:28:23;;;;;;;8.85;1.42;;;;;;;14.92;71.78;101109.75;5108334;28;20055;-72
2022/07/07 02:31:26;;;;;;;2.55;0.90;;;;;;;14.95;71.33;101106.09;5109370;28;20046;-71
2022/07/07 02:34:29;;;;;;;2.22;0.75;;;;;;;15.03;71.51;101098.56;5109277;28;20046;-72
2022/07/07 02:37:32;;;;;;;3.85;0.95;;;;;;;15.09;71.09;101099.03;5108805;28;20074;-72
2022/07/07 02:40:36;;;;;;;6.32;1.00;;;;;;;15.03;70.75;101091.50;5108893;28;20249;-72
2022/07/07 02:43:39;;;;;;;3.85;1.15;;;;;;;15.06;71.10;101086.06;5108239;28;20550;-72
2022/07/07 02:46:42;;;;;;;6.70;1.02;;;;;;;14.95;71.88;101085.84;5109017;28;20522;-72
2022/07/07 02:49:46;;;;;;;3.15;0.90;;;;;;;14.86;72.20;101076.72;5109294;28;20046;-72
2022/07/07 02:52:49;;;;;;;3.28;1.13;;;;;;;14.97;71.94;101077.88;5109657;28;20051;-72
2022/07/07 02:55:52;;;;;;;3.03;1.08;;;;;;;14.95;71.89;101083.22;5109054;28;20051;-72
2022/07/07 02:58:56;;;;;;;3.63;1.10;;;;;;;14.94;72.23;101073.66;5108314;28;20051;-72
2022/07/07 03:01:59;;;;;;;4.78;1.10;;;;;;;15.11;71.47;101072.59;5108437;28;20999;-72
2022/07/07 03:05:03;;;;;;;4.25;0.80;;;;;;;14.94;72.07;101075.44;5108392;28;20070;-73
2022/07/07 03:08:06;;;;;;;2.53;0.73;;;;;;;14.91;71.14;101068.56;5108776;28;20104;-73
2022/07/07 03:11:10;;;;;;;5.88;0.90;;;;;;;15.18;70.09;101073.03;5108395;28;20051;-72
2022/07/07 03:14:13;;;;;;;2.65;0.60;;;;;;;15.07;71.25;101069.31;5108777;28;20069;-72
2022/07/07 03:17:16;;;;;;;6.20;0.88;;;;;;;15.08;71.45;101067.50;5108301;28;20059;-72
2022/07/07 03:20:19;;;;;;;4.38;1.35;;;;;;;14.95;71.66;101056.91;5107315;28;20570;-72
2022/07/07 03:23:23;;;;;;;2.75;1.00;;;;;;;14.88;72.83;101061.69;5107213;28;20047;-72
2022/07/07 03:26:26;;;;;;;3.08;1.00;;;;;;;14.91;72.32;101059.81;5107468;28;20046;-71
2022/07/07 03:29:29;;;;;;;3.25;0.80;;;;;;;14.96;71.83;101055.94;5107874;28;20492;-71
2022/07/07 03:32:33;;;;;;;10.15;1.05;;;;;;;15.00;71.76;101065.38;5108308;28;20062;-72
2022/07/07 03:35:38;;;;;;;3.00;0.73;;;;;;;14.92;72.34;101057.09;5106954;28;20051;-72
2022/07/07 03:38:41;;;;;;;4.32;0.80;;;;;;;14.77;72.97;101058.03;5106514;28;20046;-71
2022/07/07 03:41:44;;;;;;;2.95;0.80;;;;;;;14.97;72.69;101062.91;5096700;28;20169;-71
2022/07/07 03:44:48;;;;;;;2.97;0.90;;;;;;;14.79;73.19;101061.41;5086028;28;20093;-72
2022/07/07 03:47:51;;;;;;;2.83;0.70;;;;;;;14.92;73.13;101062.34;5086366;28;20085;-71
2022/07/07 03:50:54;;;;;;;2.40;0.88;;;;;;;14.95;72.75;101056.06;5085692;28;20075;-71
2022/07/07 03:53:58;;;;;;;3.45;0.90;;;;;;;14.95;73.00;101054.25;5086862;28;20093;-72
2022/07/07 03:57:01;;;;;;;2.25;0.88;;;;;;;14.90;73.25;101053.72;5086783;28;20054;-72
2022/07/07 04:00:07;;;;;;;5.13;0.90;;;;;;;14.90;73.13;101043.19;5088278;28;20089;-72
2022/07/07 04:03:11;;;;;;;3.42;1.20;;;;;;;15.05;72.67;101031.66;5089068;28;20409;-73
2022/07/07 04:06:15;;;;;;;2.33;1.02;;;;;;;14.91;73.31;101026.44;5089272;28;20409;-71
2022/07/07 04:09:18;;;;;;;2.60;0.70;;;;;;;14.81;73.90;101023.53;5096009;28;20522;-72
2022/07/07 04:12:22;;;;;;;2.08;0.98;;;;;;;14.89;73.81;101025.69;5109161;28;20108;-71
2022/07/07 04:15:25;;;;;;;2.55;0.80;;;;;;;14.93;74.04;101037.69;5097849;28;20050;-72
2022/07/07 04:18:28;;;;;;;5.75;1.30;;;;;;;14.96;73.55;101019.06;5100399;28;20042;-74
2022/07/07 04:21:32;;;;;;;1.55;0.68;;;;;;;15.15;73.38;101023.19;5107886;28;20108;-75
2022/07/07 04:24:35;;;;;;;4.90;1.20;;;;;;;15.38;71.93;101032.25;5093373;28;20085;-73
2022/07/07 04:27:39;;;;;;;2.85;0.90;;;;;;;15.16;73.22;101033.66;5086980;28;20071;-72
2022/07/07 04:30:42;;;;;;;2.53;0.73;;;;;;;15.38;72.24;101035.75;5086912;28;20077;-73
2022/07/07 04:33:46;;;;;;;3.00;1.13;;;;;;;15.31;72.73;101031.81;5090143;28;20074;-73
2022/07/07 04:36:50;;;;;;;5.63;1.10;;;;;;;15.27;73.36;101035.59;5091900;28;20169;-71
2022/07/07 04:39:53;;;;;;;;;;;;;;;15.24;73.61;101027.88;5100156;28;20089;-68
2022/07/07 04:42:56;;;;;;;5.93;1.20;;;;;;;15.35;72.60;101028.06;5091642;28;19946;-73
2022/07/07 04:45:59;;;;;;;3.75;1.00;;;;;;;15.42;72.05;101015.31;5090306;28;20035;-76
2022/07/07 04:49:03;;;;;;;3.80;1.10;;;;;;;15.25;73.12;101011.13;5090565;28;20097;-75
2022/07/07 04:52:06;;;;;;;3.20;0.85;;;;;;;15.38;73.10;101017.31;5096077;28;20101;-75
2022/07/07 04:55:09;;;;;;;3.95;1.00;;;;;;;15.30;73.48;101009.03;5111279;28;20507;-75
2022/07/07 04:58:13;;;;;;;2.55;0.95;;;;;;;15.44;73.21;101000.25;5111083;28;20063;-75
2022/07/07 05:01:17;;;;;;;2.38;1.00;;;;;;;15.32;73.85;100996.63;5111464;28;20066;-75
2022/07/07 05:04:20;;;;;;;2.97;0.70;;;;;;;15.43;73.31;100994.13;5110855;28;20104;-74
2022/07/07 05:07:24;;;;;;;3.92;1.10;;;;;;;15.49;73.35;100990.25;5109721;28;20042;-74
2022/07/07 05:10:28;;;;;;;3.72;1.20;;;;;;;15.34;73.78;100989.44;5110539;28;20566;-74
2022/07/07 05:13:31;;;;;;;2.67;1.02;;;;;;;15.50;73.38;100990.13;5111215;28;20475;-74
2022/07/07 05:16:35;;;;;;;2.38;0.93;;;;;;;15.56;73.25;101002.06;5111301;28;20763;-74
2022/07/07 05:19:39;;;;;;;3.10;1.13;;;;;;;15.39;74.52;100997.91;5110631;28;20070;-75
2022/07/07 05:22:43;;;;;;;3.90;1.40;;;;;;;15.62;73.15;100995.56;5110484;28;20128;-75
2022/07/07 05:25:46;;;;;;;5.65;1.10;;;;;;;15.55;74.04;101001.25;5111118;28;20042;-75
2022/07/07 05:29:32;;;;;;;3.38;1.30;;;;;;;15.67;73.71;100998.78;5111005;28;20062;-74
2022/07/07 05:32:36;;;;;;;2.15;0.90;;;;;;;15.38;74.62;100998.88;5110610;28;20127;-75
2022/07/07 05:36:04;;;;;;;4.53;1.48;;;;;;;15.77;73.10;101000.69;5109623;28;20088;-74
2022/07/07 05:39:08;;;;;;;4.57;1.27;;;;;;;15.72;73.82;100994.88;5110829;28;20070;-74
2022/07/07 05:46:28;;;;;;;7.40;1.40;;;;;;;15.74;74.19;100998.28;5110380;28;20050;-74
2022/07/07 05:49:32;;;;;;;4.18;1.38;;;;;;;15.73;74.80;101001.88;5108841;28;20082;-74
2022/07/07 05:52:35;;;;;;;6.28;1.33;;;;;;;15.83;74.73;100996.81;5091043;28;20097;-74
2022/07/07 05:55:38;;;;;;;6.07;1.42;;;;;;;15.88;75.20;100999.13;5089296;28;20140;-75
2022/07/07 05:58:42;;;;;;;4.43;1.30;;;;;;;15.87;75.81;100998.28;5089819;28;20460;-74
2022/07/07 06:01:45;;;;;;;4.40;1.38;;;;;;;15.87;75.75;101002.72;5089974;28;20094;-74
2022/07/07 06:04:48;;;;;;;4.65;1.70;;;;;;;15.98;75.51;101001.03;5105279;28;20353;-75
2022/07/07 06:07:52;;;;;;;5.30;1.10;;;;;;;15.98;75.81;101003.69;5109535;28;20092;-75
2022/07/07 06:10:55;;;;;;;5.00;1.00;;;;;;;15.91;76.10;101002.41;5109123;28;20183;-75
2022/07/07 06:13:58;;;;;;;9.20;1.35;;;;;;;16.01;76.23;101000.84;5109463;28;20140;-75
2022/07/07 06:17:01;;;;;;;5.75;1.40;;;;;;;16.02;76.61;100997.28;5110260;28;20504;-75
2022/07/07 06:20:06;;;;;;;13.23;1.55;;;;;;;16.12;76.16;100996.66;5109977;28;20058;-75
2022/07/07 06:23:10;;;;;;;5.68;1.35;;;;;;;16.24;75.96;101001.06;5109731;28;20678;-75
2022/07/07 06:26:13;;;;;;;4.82;1.48;;;;;;;16.33;75.34;101004.88;5094374;28;20305;-75
2022/07/07 06:29:17;;;;;;;6.00;1.30;;;;;;;16.51;74.73;101012.38;5099513;28;20066;-75
2022/07/07 06:32:20;;;;;;;5.43;1.10;;;;;;;16.75;73.80;101009.00;5095385;28;20043;-74
2022/07/07 06:35:24;;;;;;;6.45;1.30;;;;;;;16.68;72.95;101000.63;5109655;28;20093;-74
2022/07/07 06:38:28;;;;;;;4.45;1.15;;;;;;;16.92;70.95;100997.25;5093131;28;20050;-74
2022/07/07 06:41:38;;;;;;;5.88;1.88;;;;;;;16.99;68.68;100993.22;5089084;28;20077;-74
2022/07/07 06:44:41;;;;;;;3.42;1.80;;;;;;;17.13;68.04;100986.91;5089243;28;20058;-75
2022/07/07 06:47:45;;;;;;;8.77;2.42;;;;;;;17.24;67.89;100984.34;5104617;28;20074;-74
2022/07/07 06:50:49;;;;;;;5.53;1.80;;;;;;;17.31;67.63;100982.94;5109107;28;20059;-77
2022/07/07 06:53:52;;;;;;;4.28;1.90;;;;;;;17.33;67.22;100969.63;5108207;28;20043;-75
2022/07/07 06:56:56;;;;;;;4.38;1.60;;;;;;;17.46;66.88;100951.06;5108760;28;20097;-74
2022/07/07 06:59:59;;;;;;;5.75;1.70;;;;;;;17.57;66.94;100961.66;5108821;28;20065;-74
2022/07/07 07:03:03;;;;;;;4.05;1.52;;;;;;;17.57;66.67;100953.75;5110035;28;20112;-74
2022/07/07 07:06:07;;;;;;;5.47;1.50;;;;;;;17.56;66.96;100955.53;5109216;28;20105;-75
2022/07/07 07:09:10;;;;;;;3.03;1.58;;;;;;;17.58;67.11;100958.06;5093913;28;20093;-75
2022/07/07 07:12:13;;;;;;;3.63;1.45;;;;;;;17.65;67.06;100978.66;5088189;28;20135;-78
2022/07/07 07:15:16;;;;;;;6.57;1.45;;;;;;;17.65;67.04;100977.81;5094942;28;20086;-72
2022/07/07 07:18:20;;;;;;;5.78;1.58;;;;;;;17.68;67.76;100980.22;5108978;28;20055;-76
2022/07/07 07:21:23;;;;;;;4.93;1.60;;;;;;;17.69;67.28;100984.56;5108893;28;20244;-73
2022/07/07 07:24:27;;;;;;;7.38;1.73;;;;;;;17.83;67.14;100988.84;5108028;28;20499;-74
2022/07/07 07:27:30;;;;;;;4.35;1.23;;;;;;;17.98;66.32;100987.69;5090092;28;20089;-74
2022/07/07 07:30:34;;;;;;;9.80;1.65;;;;;;;17.92;66.24;100982.00;5109018;28;20096;-74
2022/07/07 07:33:37;;;;;;;7.60;1.23;;;;;;;18.01;66.00;100973.38;5109482;28;20054;-67
2022/07/07 07:36:40;;;;;;;3.80;1.50;;;;;;;18.07;65.79;100970.25;5109507;28;20161;-67
2022/07/07 07:39:43;;;;;;;5.00;1.50;;;;;;;18.26;65.35;100959.94;5109080;28;20043;-75
2022/07/07 07:42:47;;;;;;;6.28;1.25;;;;;;;18.19;65.64;100953.44;5107343;28;20108;-75
2022/07/07 07:45:52;;;;;;;3.30;1.77;;;;;;;18.22;65.36;100963.78;5086970;28;20546;-76
2022/07/07 07:48:58;;;;;;;4.75;1.60;;;;;;;18.21;65.55;100956.78;5087830;28;20063;-75
2022/07/07 07:52:01;;;;;;;4.40;1.52;;;;;;;18.29;65.38;100954.41;5088286;28;20043;-75
2022/07/07 07:55:06;;;;;;;5.30;1.48;;;;;;;18.43;65.17;100960.44;5088164;28;20081;-76
2022/07/07 07:58:10;;;;;;;7.90;1.35;;;;;;;18.36;65.53;100960.91;5088539;28;20097;-74
2022/07/07 08:01:14;;;;;;;3.35;1.30;;;;;;;18.25;66.46;100957.41;5088662;28;20127;-73
2022/07/07 08:04:17;;;;;;;3.40;1.50;;;;;;;18.30;66.79;100958.72;5087216;28;20131;-74
2022/07/07 08:07:20;;;;;;;5.15;1.70;;;;;;;18.06;68.46;100973.84;5093994;28;20089;-74
2022/07/07 08:10:24;;;;;;;5.53;1.65;;;;;;;17.73;71.69;100983.34;5113216;28;20093;-74
2022/07/07 08:13:27;;;;;;;6.03;1.75;;;;;;;17.54;75.01;100985.69;5113117;28;20062;-73
2022/07/07 08:16:30;;;;;;;4.68;1.92;;;;;;;17.48;77.11;100988.78;5112126;28;20454;-69
2022/07/07 08:19:34;;;;;;;5.38;1.95;;;;;;;17.16;79.00;101015.75;5111846;28;20519;-74
2022/07/07 08:22:38;;;;;;;6.45;2.00;;;;;;;16.96;81.63;101028.59;5111554;28;20039;-73
2022/07/07 08:25:41;;;;;;;4.90;2.22;;;;;;;16.56;83.47;101027.03;5111102;28;20096;-72
2022/07/07 08:28:45;;;;;;;8.07;2.00;;;;;;;16.56;82.71;101029.69;5112433;28;20050;-74
2022/07/07 08:31:48;;;;;;;6.57;1.50;;;;;;;16.65;82.78;101026.41;5112473;28;20053;-74
2022/07/07 08:34:51;;;;;;;2.83;1.30;;;;;;;16.63;83.92;101031.81;5112101;28;20109;-73
2022/07/07 08:37:55;;;;;;;3.97;1.27;;;;;;;16.52;84.34;101036.97;5111708;28;20077;-74
2022/07/07 08:40:58;;;;;;;5.15;1.13;;;;;;;16.55;84.11;101038.56;5110946;28;20519;-72
2022/07/07 08:44:03;;;;;;;3.78;1.38;;;;;;;16.75;83.42;101032.75;5111791;28;20042;-73
2022/07/07 08:47:16;;;;;;;5.18;1.35;;;;;;;17.19;83.20;101031.41;5108807;28;20115;-73
2022/07/07 08:50:19;;;;;;;4.13;1.40;;;;;;;17.34;80.27;101025.00;5091567;28;20562;-73
2022/07/07 08:53:23;;;;;;;2.80;1.30;;;;;;;17.43;80.77;101029.63;5096359;28;20501;-73
2022/07/07 08:56:27;;;;;;;5.80;1.65;;;;;;;17.79;79.61;101033.19;5107452;28;20042;-72
2022/07/07 08:59:30;;;;;;;2.55;0.90;;;;;;;17.74;79.18;101045.91;5111844;28;20303;-72
2022/07/07 09:02:34;;;;;;;2.92;1.08;;;;;;;17.56;78.77;101040.16;5111180;28;20471;-73
2022/07/07 09:05:40;;;;;;;3.92;1.33;;;;;;;17.44;79.37;101033.13;5096037;28;20058;-72
2022/07/07 09:08:44;;;;;;;3.78;1.25;;;;;;;17.53;79.12;101044.81;5110875;28;20470;-73
2022/07/07 09:11:59;;;;;;;4.30;1.10;;;;;;;17.54;79.40;101043.84;5094531;28;20100;-73
2022/07/07 09:15:04;;;;;;;2.95;1.25;;;;;;;17.36;81.05;101051.34;5103130;28;20042;-73
2022/07/07 09:18:09;;;;;;;3.75;1.15;;;;;;;17.53;79.71;101050.94;5098313;28;20396;-73
2022/07/07 09:21:30;;;;;;;3.35;1.08;;;;;;;17.61;80.08;101038.03;5111292;28;20047;-73
2022/07/07 09:24:51;;;;;;;6.93;1.23;;;;;;;17.98;78.46;101056.47;5110024;28;20289;-74
2022/07/07 09:28:03;;;;;;;5.35;1.15;;;;;;;17.95;76.38;101055.84;5098595;28;20071;-73
2022/07/07 09:31:06;;;;;;;3.08;0.98;;;;;;;17.78;78.37;101057.97;5111182;28;20039;-73
2022/07/07 09:34:13;;;;;;;3.00;1.30;;;;;;;17.65;80.25;101065.09;5111362;28;20503;-73
2022/07/07 09:41:08;;;;;;;3.13;1.10;;;;;;;17.71;78.59;101075.22;5090057;28;20516;-73
2022/07/07 09:44:11;;;;;;;5.22;1.33;;;;;;;17.79;80.67;101088.72;5090334;28;20089;-73
2022/07/07 09:47:15;;;;;;;4.00;1.40;;;;;;;17.65;81.04;101095.00;5090939;28;20127;-73
2022/07/07 09:50:19;;;;;;;2.42;1.20;;;;;;;17.85;79.44;101098.03;5089419;28;20071;-74
2022/07/07 09:53:22;;;;;;;2.55;1.10;;;;;;;17.87;77.09;101102.25;5103112;28;20485;-67
2022/07/07 09:56:33;;;;;;;3.33;1.20;;;;;;;17.52;79.31;101130.41;5110040;28;20097;-67
2022/07/07 09:59:36;;;;;;;6.07;1.15;;;;;;;17.41;78.37;101118.78;5109855;28;20043;-71
2022/07/07 10:02:42;;;;;;;2.20;0.90;;;;;;;17.33;77.08;101139.63;5110456;28;20082;-76
2022/07/07 10:05:46;;;;;;;2.08;0.82;;;;;;;16.55;79.79;101152.06;5109707;28;20169;-71
2022/07/07 10:08:56;;;;;;;2.83;0.80;;;;;;;16.17;80.66;101168.66;5110187;28;20526;-75
2022/07/07 10:11:59;;;;;;;3.50;0.60;;;;;;;16.25;80.54;101171.66;5110592;28;20054;-75
2022/07/07 10:15:11;;;;;;;2.45;0.45;;;;;;;16.38;78.61;101176.97;5110218;28;20569;-77
2022/07/07 10:18:15;;;;;;;1.30;0.40;;;;;;;16.89;77.55;101163.88;5086254;28;20039;-75
2022/07/07 10:21:19;;;;;;;1.38;0.38;;;;;;;16.86;76.41;101162.28;5108562;28;20051;-75
2022/07/07 10:24:27;;;;;;;0.85;0.20;;;;;;;16.72;75.17;101170.28;5109255;28;20066;-76
2022/07/07 10:27:30;;;;;;;3.08;0.50;;;;;;;16.83;76.30;101157.22;5109446;28;20043;-75
2022/07/07 10:30:34;;;;;;;1.48;0.40;;;;;;;17.15;75.26;101157.63;5108118;28;20121;-76
2022/07/07 10:33:37;;;;;;;1.13;0.22;;;;;;;17.31;73.53;101167.13;5108716;28;20042;-76
2022/07/07 10:36:50;;;;;;;0.85;0.20;;;;;;;17.05;73.94;101167.16;5108721;28;20453;-71
2022/07/07 10:39:56;;;;;;;2.90;0.40;;;;;;;17.23;72.82;101169.44;5108300;28;20045;-73
2022/07/07 10:43:11;;;;;;;2.70;0.50;;;;;;;17.16;73.90;101179.59;5109745;28;20148;-73
2022/07/07 10:46:15;;;;;;;4.72;0.30;;;;;;;17.28;72.97;101178.75;5109155;28;20074;-72
2022/07/07 10:49:19;;;;;;;3.10;0.38;;;;;;;17.36;72.24;101181.72;5108664;28;20353;-73
2022/07/07 10:52:41;;;;;;;1.17;0.30;;;;;;;17.55;72.72;101181.25;5109153;28;20038;-73
2022/07/07 10:55:58;;;;;;;1.60;0.40;;;;;;;17.58;72.66;101196.03;5108578;28;20072;-72
2022/07/07 10:59:02;;;;;;;4.47;1.00;;;;;;;18.05;72.21;101197.09;5109063;28;20179;-74
2022/07/07 11:02:06;;;;;;;2.63;0.70;;;;;;;17.85;71.87;101199.41;5108987;28;20413;-73
2022/07/07 11:05:15;;;;;;;5.28;0.75;;;;;;;17.66;73.45;101202.47;5108014;28;20038;-72
2022/07/07 11:08:19;;;;;;;2.88;0.63;;;;;;;17.28;75.20;101204.34;5109026;28;20046;-73
2022/07/07 11:11:23;;;;;;;3.25;0.60;;;;;;;17.11;76.46;101226.66;5108488;28;20042;-73
2022/07/07 11:14:26;;;;;;;1.95;0.70;;;;;;;16.77;77.02;101221.00;5109598;28;20046;-73
2022/07/07 11:17:33;;;;;;;1.65;0.63;;;;;;;17.05;77.20;101213.88;5109311;28;20627;-71
2022/07/07 11:20:53;;;;;;;2.53;0.50;;;;;;;17.21;75.27;101211.84;5065312;28;20140;-73
2022/07/07 11:23:57;;;;;;;1.65;0.40;;;;;;;17.24;73.21;101211.63;5067818;28;20055;-70
2022/07/07 11:27:03;;;;;;;2.17;0.70;;;;;;;17.30;72.57;101218.31;5068560;28;20040;-70
2022/07/07 11:30:08;;;;;;;3.85;1.00;;;;;;;17.55;71.68;101217.41;5068012;28;20098;-70
2022/07/07 11:33:11;;;;;;;3.97;0.63;;;;;;;18.01;72.02;101211.53;5067985;28;20083;-70
2022/07/07 11:39:57;;;;;;;3.65;0.73;;;;;;;18.32;71.06;101216.25;5088067;28;20524;-71
2022/07/07 11:43:00;;;;;;;2.70;0.60;;;;;;;18.66;68.45;101220.84;5087803;28;20101;-70
2022/07/07 11:46:05;;;;;;;3.05;0.77;;;;;;;18.15;68.81;101211.34;5048685;28;20052;-71
2022/07/07 11:49:14;;;;;;;3.78;0.60;;;;;;;17.84;69.70;101221.53;5048827;28;20099;-70
2022/07/07 11:52:21;;;;;;;2.10;0.60;;;;;;;17.78;71.03;101234.34;5066591;28;20043;-70
2022/07/07 11:55:25;;;;;;;3.25;0.80;;;;;;;17.71;70.83;101228.63;5089261;28;20039;-69
2022/07/07 11:58:30;;;;;;;4.43;0.93;;;;;;;17.60;70.75;101236.44;5089511;28;20043;-69
2022/07/07 12:01:38;;;;;;;5.45;1.00;;;;;;;17.58;71.71;101251.56;5081140;28;20075;-70
2022/07/07 12:04:42;;;;;;;6.05;0.70;;;;;;;17.55;72.00;101251.78;5068462;28;20513;-71
2022/07/07 12:07:57;;;;;;;3.53;0.80;;;;;;;17.27;74.57;101266.94;5069011;28;20099;-69
2022/07/07 12:11:00;;;;;;;2.85;0.50;;;;;;;17.15;75.80;101265.13;5068988;28;20047;-71
2022/07/07 12:14:07;;;;;;;5.43;0.90;;;;;;;17.31;76.01;101276.34;5068468;28;20182;-69
2022/07/07 12:17:10;;;;;;;2.75;0.70;;;;;;;17.13;74.49;101274.94;5067989;28;20047;-69
2022/07/07 12:20:17;;;;;;;3.33;0.57;;;;;;;17.53;73.03;101266.94;5102318;28;20054;-68
2022/07/07 12:23:21;;;;;;;5.10;1.00;;;;;;;18.33;72.06;101270.06;5108529;28;20039;-70
2022/07/07 12:26:27;;;;;;;2.65;0.77;;;;;;;18.50;70.21;101259.06;5108500;28;20509;-68
2022/07/07 12:29:31;;;;;;;3.97;0.88;;;;;;;19.18;67.59;101275.22;5107485;28;20088;-68
2022/07/07 12:32:35;;;;;;;5.45;0.80;;;;;;;19.05;67.26;101273.50;5108438;28;20112;-69
2022/07/07 12:35:40;;;;;;;4.70;0.70;;;;;;;18.63;68.51;101266.94;5108925;28;20100;-69
2022/07/07 12:38:59;;;;;;;3.10;1.10;;;;;;;18.96;67.41;101270.72;5108976;28;20079;-71
2022/07/07 12:42:03;;;;;;;3.58;0.70;;;;;;;18.81;66.57;101265.59;5108793;28;20061;-68
2022/07/07 12:45:12;;;;;;;3.22;0.88;;;;;;;18.57;67.93;101264.78;5108317;28;20042;-69
2022/07/07 12:48:17;;;;;;;7.07;0.60;;;;;;;18.45;68.86;101277.09;5109134;28;20047;-70
2022/07/07 12:51:26;;;;;;;4.30;1.13;;;;;;;17.96;70.06;101280.63;5109016;28;20559;-69
2022/07/07 12:54:31;;;;;;;2.65;0.70;;;;;;;18.05;69.99;101279.97;5112468;28;20511;-69
2022/07/07 12:57:34;;;;;;;4.25;0.65;;;;;;;18.69;68.81;101279.72;5112733;28;20042;-69
2022/07/07 13:00:39;;;;;;;4.15;0.88;;;;;;;18.85;67.41;101273.31;5091814;28;20562;-69
2022/07/07 13:03:44;;;;;;;3.08;0.60;;;;;;;18.96;67.33;101283.97;5091273;28;20579;-69
2022/07/07 13:06:51;;;;;;;1.50;0.45;;;;;;;18.64;67.49;101287.19;5090584;28;20071;-72
2022/07/07 13:09:56;;;;;;;4.10;0.60;;;;;;;18.70;65.89;101292.03;5091386;28;20059;-68
2022/07/07 13:13:05;;;;;;;1.67;0.40;;;;;;;18.92;66.06;101291.31;5097751;28;20096;-68
2022/07/07 13:16:10;;;;;;;3.10;0.60;;;;;;;18.73;65.19;101297.13;5111637;28;20047;-68
2022/07/07 13:19:14;;;;;;;2.58;0.55;;;;;;;18.53;66.53;101285.31;5111797;28;20054;-68
2022/07/07 13:22:17;;;;;;;2.15;0.60;;;;;;;18.54;66.90;101297.63;5111720;28;20571;-69
2022/07/07 13:25:20;;;;;;;4.00;1.35;;;;;;;18.50;67.54;101290.81;5112013;28;20101;-68
2022/07/07 13:28:25;;;;;;;3.13;0.60;;;;;;;18.35;67.81;101292.81;5111505;28;20424;-68
2022/07/07 13:31:28;;;;;;;3.47;0.43;;;;;;;18.24;68.14;101302.47;5111891;28;20039;-69
2022/07/07 13:34:32;;;;;;;5.00;0.85;;;;;;;18.35;67.93;101314.00;5111701;28;20073;-70
2022/07/07 13:37:50;;;;;;;;;;;;;;;;;;;;;
2022/07/07 13:41:01;;;;;;;3.75;1.02;;;;;;;17.91;68.47;101329.56;5111380;28;20093;-68
2022/07/07 13:44:07;;;;;;;3.05;0.65;;;;;;;17.95;69.62;101341.63;5101655;28;20720;-66
2022/07/07 13:47:14;;;;;;;6.30;0.95;;;;;;;17.92;70.16;101355.06;5111440;28;20043;-69
2022/07/07 13:50:17;;;;;;;3.75;0.80;;;;;;;17.93;69.83;101352.28;5110777;28;20038;-71
2022/07/07 13:53:21;;;;;;;3.05;0.70;;;;;;;18.01;69.45;101354.41;5111799;28;20592;-70
2022/07/07 13:56:27;;;;;;;3.08;0.70;;;;;;;18.08;68.32;101353.84;5111248;28;20190;-69
2022/07/07 13:59:31;;;;;;;6.03;0.75;;;;;;;17.97;68.18;101347.66;5111896;28;20054;-67
2022/07/07 14:02:34;;;;;;;2.03;0.50;;;;;;;18.15;67.19;101351.63;5111526;28;20115;-68
2022/07/07 14:05:38;;;;;;;5.95;0.50;;;;;;;17.91;67.33;101345.44;5110668;28;20042;-68
2022/07/07 14:08:46;;;;;;;5.03;0.65;;;;;;;18.18;66.24;101350.56;5110095;28;20117;-69
2022/07/07 14:11:50;;;;;;;3.38;0.50;;;;;;;17.82;67.81;101360.97;5110118;28;20046;-69
2022/07/07 14:14:56;;;;;;;3.63;0.60;;;;;;;17.91;67.70;101367.44;5097034;28;20671;-68
2022/07/07 14:17:59;;;;;;;3.20;0.90;;;;;;;18.23;67.17;101357.22;5109637;28;20061;-67
2022/07/07 14:21:03;;;;;;;2.38;0.50;;;;;;;18.11;67.19;101358.09;5110266;28;20072;-68
2022/07/07 14:24:06;;;;;;;3.72;0.90;;;;;;;18.58;66.19;101365.28;5110341;28;20143;-68
2022/07/07 14:27:10;;;;;;;8.13;1.15;;;;;;;18.28;67.79;101373.66;5089176;28;20173;-70
2022/07/07 14:30:17;;;;;;;4.80;0.93;;;;;;;18.26;67.19;101370.25;5099495;28;20042;-71
2022/07/07 14:33:24;;;;;;;3.42;0.90;;;;;;;18.17;69.83;101365.59;5100770;28;20638;-70